Briefing drone pour Annecy-le-vieux

Rechercher une autre localisation

Conditions de vol :


Nous sommes le : Dimanche 25 octobre 2020
Il est 22:27 UTC (23:27 LT)

Lever de soleil : 05:40 UTC (06:40 LT)
Coucher de soleil : 16:58 UTC (17:58 LT)

Météo

L'essentiel des conditions de vol

VIGILANCE MÉTÉO FRANCE - Haute-Savoie (74)
Vigilance Jaune : Pluie-inondation
METAR de LFLP
LFLP 252200Z AUTO 08003KT 050V170 9999 FEW076 OVC100 11/09 Q1006

Date d'émission: 25/10/2020
Heure d'émission: 22:00 UTC
Vent: 080° (variable du 050° au 170°) pour 3 KT (6 km/h)
Visibilité horizontale: > 10 km
Plafond :
- Peu de nuages à 7600ft (2317m)
- Couvert à 10000ft (3048m)
Température: 11 °C
Point de rosée: 9 °C
Humidité: 87%
Pression (QNH): 1006 hPa
TAF de LFLP
AMD LFLP 251959Z 2519/2615 CNL

Conditions prévues :

Heure d'émission : Bulletin éffectué le 25 à 19:00 UTC
Prévision : Valide du 25 a 19:00 UTC au 26 a 15:00 UTC
Nuages : à 0ft (0 m)
WEBCAM POUR ANNECY-LE-VIEUX

Réglementation

Voler en sécurité

CARTES AERONAUTIQUE 1/500.000
CARTES VAC (LFLP)
SUP AIP




Chargement des AIP...
NOTAM (ANNECY-LE-VIEUX + Terrain à proximité / FIR )




Chargement des NOTAMS...
CONTACT PREFECTURE 74


Avertissement : Les données mises à disposition sont indicatives. Oxygène Drone ne pourra être tenu responsable de dégâts causés aux biens et aux personnes.